Terminal Aerodrome Forecast
Issued by NWS Cleveland, OH

Home | Current Version | Previous Version | Graphics & Text | Print | Product List | Glossary Off
Versions: 1 2 3 4 5 6 7 8 9 10 11 12 13 14 15 16

000
FTUS41 KCLE 200500
TAFERI
TAF
KERI 200532Z 2006/2106 VRB04KT P6SM SKC
     FM201200 16008KT P6SM SCT250
     FM201800 03008KT P6SM SCT250
     FM210100 18008KT P6SM SCT250=

USA.gov is the U.S. government's official web portal to all federal, state and local government web resources and services.